sensor_id;sensor_type;location;lat;lon;timestamp;pressure;altitude;pressure_sealevel;temperature;humidity
49945;BME280;35838;49.134;9.212;2023-07-24T00:00:16;99106.94;;;19.78;100.00
49945;BME280;35838;49.134;9.212;2023-07-24T00:01:47;99121.81;;;19.79;100.00
49945;BME280;35838;49.134;9.212;2023-07-24T00:03:20;99142.47;;;19.86;100.00
49945;BME280;35838;49.134;9.212;2023-07-24T00:04:54;99153.16;;;19.83;100.00
49945;BME280;35838;49.134;9.212;2023-07-24T00:06:25;99149.97;;;19.94;100.00
49945;BME280;35838;49.134;9.212;2023-07-24T00:07:59;99129.66;;;19.96;100.00
49945;BME280;35838;49.134;9.212;2023-07-24T00:09:30;99117.25;;;19.98;100.00
49945;BME280;35838;49.134;9.212;2023-07-24T00:11:06;99114.81;;;19.95;100.00
49945;BME280;35838;49.134;9.212;2023-07-24T00:12:37;99126.84;;;19.83;100.00
49945;BME280;35838;49.134;9.212;2023-07-24T00:14:14;99115.59;;;19.80;100.00
49945;BME280;35838;49.134;9.212;2023-07-24T00:15:45;99125.75;;;19.87;100.00
49945;BME280;35838;49.134;9.212;2023-07-24T00:17:19;99124.81;;;19.88;100.00
49945;BME280;35838;49.134;9.212;2023-07-24T00:18:50;99139.84;;;20.02;100.00
49945;BME280;35838;49.134;9.212;2023-07-24T00:20:23;99137.91;;;20.06;100.00
49945;BME280;35838;49.134;9.212;2023-07-24T00:21:55;99129.06;;;20.07;100.00
49945;BME280;35838;49.134;9.212;2023-07-24T00:23:29;99130.78;;;20.08;100.00
49945;BME280;35838;49.134;9.212;2023-07-24T00:25:00;99122.88;;;20.08;100.00
49945;BME280;35838;49.134;9.212;2023-07-24T00:26:33;99124.56;;;20.09;100.00
49945;BME280;35838;49.134;9.212;2023-07-24T00:28:04;99116.72;;;20.08;100.00
49945;BME280;35838;49.134;9.212;2023-07-24T00:29:40;99124.41;;;19.96;100.00
49945;BME280;35838;49.134;9.212;2023-07-24T00:31:11;99112.31;;;19.92;100.00
49945;BME280;35838;49.134;9.212;2023-07-24T00:32:45;99114.03;;;19.93;100.00
49945;BME280;35838;49.134;9.212;2023-07-24T00:34:16;99116.56;;;19.95;100.00
49945;BME280;35838;49.134;9.212;2023-07-24T00:35:50;99118.44;;;19.93;100.00
49945;BME280;35838;49.134;9.212;2023-07-24T00:37:21;99114.44;;;19.85;100.00
49945;BME280;35838;49.134;9.212;2023-07-24T00:38:54;99110.31;;;19.80;100.00
49945;BME280;35838;49.134;9.212;2023-07-24T00:40:25;99113.22;;;19.75;100.00
49945;BME280;35838;49.134;9.212;2023-07-24T00:41:59;99106.34;;;19.72;100.00
49945;BME280;35838;49.134;9.212;2023-07-24T00:43:32;99110.09;;;19.68;100.00
49945;BME280;35838;49.134;9.212;2023-07-24T00:45:09;99110.16;;;19.67;100.00
49945;BME280;35838;49.134;9.212;2023-07-24T00:46:40;99111.25;;;19.63;100.00
49945;BME280;35838;49.134;9.212;2023-07-24T00:48:14;99095.81;;;19.72;100.00
49945;BME280;35838;49.134;9.212;2023-07-24T00:49:45;99083.94;;;19.81;100.00
49945;BME280;35838;49.134;9.212;2023-07-24T00:51:19;99079.50;;;19.82;100.00
49945;BME280;35838;49.134;9.212;2023-07-24T00:52:50;99088.19;;;19.84;100.00
49945;BME280;35838;49.134;9.212;2023-07-24T00:54:24;99079.44;;;19.83;100.00
49945;BME280;35838;49.134;9.212;2023-07-24T00:55:59;99089.91;;;19.85;100.00
49945;BME280;35838;49.134;9.212;2023-07-24T00:57:30;99089.25;;;19.80;100.00
49945;BME280;35838;49.134;9.212;2023-07-24T00:59:04;99086.63;;;19.80;100.00
49945;BME280;35838;49.134;9.212;2023-07-24T01:00:38;99090.91;;;19.82;100.00
49945;BME280;35838;49.134;9.212;2023-07-24T01:02:12;99087.66;;;19.77;100.00
49945;BME280;35838;49.134;9.212;2023-07-24T01:03:43;99085.13;;;19.76;100.00
49945;BME280;35838;49.134;9.212;2023-07-24T01:05:17;99086.31;;;19.70;100.00
49945;BME280;35838;49.134;9.212;2023-07-24T01:06:48;99084.75;;;19.66;100.00
49945;BME280;35838;49.134;9.212;2023-07-24T01:08:22;99089.53;;;19.59;100.00
49945;BME280;35838;49.134;9.212;2023-07-24T01:09:53;99092.66;;;19.50;100.00
49945;BME280;35838;49.134;9.212;2023-07-24T01:11:27;99097.31;;;19.45;100.00
49945;BME280;35838;49.134;9.212;2023-07-24T01:13:00;99093.03;;;19.26;100.00
49945;BME280;35838;49.134;9.212;2023-07-24T01:14:37;99095.94;;;19.37;100.00
49945;BME280;35838;49.134;9.212;2023-07-24T01:16:13;99093.88;;;19.26;100.00
49945;BME280;35838;49.134;9.212;2023-07-24T01:17:48;99101.72;;;19.10;100.00
49945;BME280;35838;49.134;9.212;2023-07-24T01:19:26;99100.69;;;19.13;100.00
49945;BME280;35838;49.134;9.212;2023-07-24T01:21:02;99098.72;;;19.01;100.00
49945;BME280;35838;49.134;9.212;2023-07-24T01:22:38;99097.38;;;18.92;100.00
49945;BME280;35838;49.134;9.212;2023-07-24T01:24:14;99101.59;;;18.96;100.00
49945;BME280;35838;49.134;9.212;2023-07-24T01:25:57;99095.41;;;18.97;100.00
49945;BME280;35838;49.134;9.212;2023-07-24T01:27:33;99094.06;;;18.88;100.00
49945;BME280;35838;49.134;9.212;2023-07-24T01:29:04;99090.69;;;18.86;100.00
49945;BME280;35838;49.134;9.212;2023-07-24T01:30:37;99087.19;;;18.86;100.00
49945;BME280;35838;49.134;9.212;2023-07-24T01:32:08;99082.84;;;18.85;100.00
49945;BME280;35838;49.134;9.212;2023-07-24T01:33:42;99088.97;;;18.85;100.00
49945;BME280;35838;49.134;9.212;2023-07-24T01:35:16;99086.88;;;18.74;100.00
49945;BME280;35838;49.134;9.212;2023-07-24T01:36:47;99084.94;;;18.78;100.00
49945;BME280;35838;49.134;9.212;2023-07-24T01:38:21;99081.47;;;18.77;100.00
49945;BME280;35838;49.134;9.212;2023-07-24T01:39:54;99083.28;;;18.77;100.00
49945;BME280;35838;49.134;9.212;2023-07-24T01:41:31;99083.03;;;18.82;100.00
49945;BME280;35838;49.134;9.212;2023-07-24T01:43:05;99078.84;;;18.77;100.00
49945;BME280;35838;49.134;9.212;2023-07-24T01:44:36;99081.16;;;18.84;100.00
49945;BME280;35838;49.134;9.212;2023-07-24T01:46:10;99077.53;;;18.86;100.00
49945;BME280;35838;49.134;9.212;2023-07-24T01:47:41;99079.06;;;18.90;100.00
49945;BME280;35838;49.134;9.212;2023-07-24T01:49:15;99082.53;;;18.91;100.00
49945;BME280;35838;49.134;9.212;2023-07-24T01:50:46;99094.94;;;18.89;100.00
49945;BME280;35838;49.134;9.212;2023-07-24T01:52:19;99094.06;;;18.88;100.00
49945;BME280;35838;49.134;9.212;2023-07-24T01:53:50;99095.69;;;18.91;100.00
49945;BME280;35838;49.134;9.212;2023-07-24T01:55:24;99094.63;;;18.95;100.00
49945;BME280;35838;49.134;9.212;2023-07-24T01:56:57;99099.81;;;18.97;100.00
49945;BME280;35838;49.134;9.212;2023-07-24T01:58:31;99093.72;;;18.96;100.00
49945;BME280;35838;49.134;9.212;2023-07-24T02:00:02;99096.47;;;18.93;100.00
49945;BME280;35838;49.134;9.212;2023-07-24T02:01:36;99095.75;;;18.89;100.00
49945;BME280;35838;49.134;9.212;2023-07-24T02:03:07;99105.44;;;18.89;100.00
49945;BME280;35838;49.134;9.212;2023-07-24T02:04:41;99103.09;;;18.83;100.00
49945;BME280;35838;49.134;9.212;2023-07-24T02:06:14;99107.44;;;18.84;100.00
49945;BME280;35838;49.134;9.212;2023-07-24T02:07:45;99107.91;;;18.92;100.00
49945;BME280;35838;49.134;9.212;2023-07-24T02:09:19;99109.63;;;18.93;100.00
49945;BME280;35838;49.134;9.212;2023-07-24T02:10:50;99105.25;;;18.92;100.00
49945;BME280;35838;49.134;9.212;2023-07-24T02:12:26;99109.84;;;18.88;100.00
49945;BME280;35838;49.134;9.212;2023-07-24T02:13:57;99116.09;;;18.86;100.00
49945;BME280;35838;49.134;9.212;2023-07-24T02:15:31;99109.91;;;18.87;100.00
49945;BME280;35838;49.134;9.212;2023-07-24T02:17:02;99112.47;;;18.88;100.00
49945;BME280;35838;49.134;9.212;2023-07-24T02:18:36;99114.56;;;18.82;100.00
49945;BME280;35838;49.134;9.212;2023-07-24T02:20:07;99106.97;;;18.75;100.00
49945;BME280;35838;49.134;9.212;2023-07-24T02:21:41;99113.63;;;18.83;100.00
49945;BME280;35838;49.134;9.212;2023-07-24T02:23:12;99117.81;;;18.87;100.00
49945;BME280;35838;49.134;9.212;2023-07-24T02:24:46;99110.00;;;18.85;100.00
49945;BME280;35838;49.134;9.212;2023-07-24T02:26:19;99110.00;;;18.85;100.00
49945;BME280;35838;49.134;9.212;2023-07-24T02:27:55;99111.00;;;18.83;100.00
49945;BME280;35838;49.134;9.212;2023-07-24T02:29:27;99108.44;;;18.81;100.00
49945;BME280;35838;49.134;9.212;2023-07-24T02:31:00;99104.66;;;18.87;100.00
49945;BME280;35838;49.134;9.212;2023-07-24T02:32:31;99105.59;;;18.86;100.00
49945;BME280;35838;49.134;9.212;2023-07-24T02:34:05;99102.19;;;18.84;100.00
49945;BME280;35838;49.134;9.212;2023-07-24T02:35:38;99096.94;;;18.84;100.00
49945;BME280;35838;49.134;9.212;2023-07-24T02:37:11;99092.53;;;18.84;100.00
49945;BME280;35838;49.134;9.212;2023-07-24T02:38:42;99089.97;;;18.83;100.00
49945;BME280;35838;49.134;9.212;2023-07-24T02:40:16;99096.19;;;18.82;100.00
49945;BME280;35838;49.134;9.212;2023-07-24T02:41:47;99085.03;;;18.76;100.00
49945;BME280;35838;49.134;9.212;2023-07-24T02:43:24;99088.44;;;18.78;100.00
49945;BME280;35838;49.134;9.212;2023-07-24T02:44:55;99085.81;;;18.78;100.00
49945;BME280;35838;49.134;9.212;2023-07-24T02:46:28;99085.03;;;18.76;100.00
49945;BME280;35838;49.134;9.212;2023-07-24T02:48:01;99081.47;;;18.77;100.00
49945;BME280;35838;49.134;9.212;2023-07-24T02:49:35;99080.56;;;18.78;100.00
49945;BME280;35838;49.134;9.212;2023-07-24T02:51:08;99076.22;;;18.77;100.00
49945;BME280;35838;49.134;9.212;2023-07-24T02:52:39;99071.50;;;18.84;100.00
49945;BME280;35838;49.134;9.212;2023-07-24T02:54:13;99068.41;;;18.76;100.00
49945;BME280;35838;49.134;9.212;2023-07-24T02:55:44;99065.84;;;18.74;100.00
49945;BME280;35838;49.134;9.212;2023-07-24T02:57:18;99057.75;;;18.61;100.00
49945;BME280;35838;49.134;9.212;2023-07-24T02:58:51;99060.22;;;18.64;100.00
49945;BME280;35838;49.134;9.212;2023-07-24T03:00:25;99052.44;;;18.63;100.00
49945;BME280;35838;49.134;9.212;2023-07-24T03:01:56;99046.16;;;18.66;100.00
49945;BME280;35838;49.134;9.212;2023-07-24T03:03:29;99046.25;;;18.64;100.00
49945;BME280;35838;49.134;9.212;2023-07-24T03:05:00;99038.38;;;18.64;100.00
49945;BME280;35838;49.134;9.212;2023-07-24T03:06:34;99043.78;;;18.61;100.00
49945;BME280;35838;49.134;9.212;2023-07-24T03:08:08;99057.69;;;18.63;100.00
49945;BME280;35838;49.134;9.212;2023-07-24T03:09:39;99067.03;;;18.51;100.00
49945;BME280;35838;49.134;9.212;2023-07-24T03:11:13;99084.19;;;18.41;100.00
49945;BME280;35838;49.134;9.212;2023-07-24T03:12:44;99081.38;;;18.44;100.00
49945;BME280;35838;49.134;9.212;2023-07-24T03:14:20;99074.94;;;18.51;100.00
49945;BME280;35838;49.134;9.212;2023-07-24T03:15:51;99089.50;;;18.57;100.00
49945;BME280;35838;49.134;9.212;2023-07-24T03:17:25;99095.31;;;18.63;100.00
49945;BME280;35838;49.134;9.212;2023-07-24T03:18:56;99097.09;;;18.63;100.00
49945;BME280;35838;49.134;9.212;2023-07-24T03:20:30;99079.91;;;18.56;100.00
49945;BME280;35838;49.134;9.212;2023-07-24T03:22:01;99065.56;;;18.63;100.00
49945;BME280;35838;49.134;9.212;2023-07-24T03:23:35;99058.84;;;18.57;100.00
49945;BME280;35838;49.134;9.212;2023-07-24T03:25:06;99061.28;;;18.60;100.00
49945;BME280;35838;49.134;9.212;2023-07-24T03:26:40;99063.88;;;18.62;100.00
49945;BME280;35838;49.134;9.212;2023-07-24T03:28:11;99064.47;;;18.67;100.00
49945;BME280;35838;49.134;9.212;2023-07-24T03:29:47;99064.66;;;18.64;100.00
49945;BME280;35838;49.134;9.212;2023-07-24T03:31:20;99052.25;;;18.66;100.00
49945;BME280;35838;49.134;9.212;2023-07-24T03:32:51;99041.84;;;18.64;100.00
49945;BME280;35838;49.134;9.212;2023-07-24T03:34:25;99043.63;;;18.64;100.00
49945;BME280;35838;49.134;9.212;2023-07-24T03:35:56;99052.72;;;18.57;100.00
49945;BME280;35838;49.134;9.212;2023-07-24T03:37:30;99053.97;;;18.50;100.00
49945;BME280;35838;49.134;9.212;2023-07-24T03:39:03;99044.22;;;18.52;100.00
49945;BME280;35838;49.134;9.212;2023-07-24T03:40:34;99045.94;;;18.53;100.00
49945;BME280;35838;49.134;9.212;2023-07-24T03:42:09;99034.31;;;18.57;100.00
49945;BME280;35838;49.134;9.212;2023-07-24T03:43:43;99039.19;;;18.64;100.00
49945;BME280;35838;49.134;9.212;2023-07-24T03:45:19;99033.47;;;18.74;100.00
49945;BME280;35838;49.134;9.212;2023-07-24T03:46:52;99033.63;;;18.71;100.00
49945;BME280;35838;49.134;9.212;2023-07-24T03:48:26;99052.56;;;18.60;100.00
49945;BME280;35838;49.134;9.212;2023-07-24T03:49:57;99068.25;;;18.44;100.00
49945;BME280;35838;49.134;9.212;2023-07-24T03:51:31;99065.03;;;18.39;100.00
49945;BME280;35838;49.134;9.212;2023-07-24T03:53:03;99046.41;;;18.43;100.00
49945;BME280;35838;49.134;9.212;2023-07-24T03:54:37;99051.28;;;18.51;100.00
49945;BME280;35838;49.134;9.212;2023-07-24T03:56:08;99046.09;;;18.50;100.00
49945;BME280;35838;49.134;9.212;2023-07-24T03:57:42;99066.31;;;18.47;100.00
49945;BME280;35838;49.134;9.212;2023-07-24T03:59:13;99072.69;;;18.61;100.00
49945;BME280;35838;49.134;9.212;2023-07-24T04:00:49;99061.78;;;18.69;100.00
49945;BME280;35838;49.134;9.212;2023-07-24T04:02:20;99061.59;;;18.72;100.00
49945;BME280;35838;49.134;9.212;2023-07-24T04:03:54;99056.13;;;18.76;100.00
49945;BME280;35838;49.134;9.212;2023-07-24T04:05:25;99062.25;;;18.77;100.00
49945;BME280;35838;49.134;9.212;2023-07-24T04:06:58;99054.59;;;18.72;100.00
49945;BME280;35838;49.134;9.212;2023-07-24T04:08:30;99066.03;;;18.71;100.00
49945;BME280;35838;49.134;9.212;2023-07-24T04:10:04;99053.97;;;18.67;100.00
49945;BME280;35838;49.134;9.212;2023-07-24T04:11:35;99053.97;;;18.67;100.00
49945;BME280;35838;49.134;9.212;2023-07-24T04:13:10;99053.81;;;18.70;100.00
49945;BME280;35838;49.134;9.212;2023-07-24T04:14:43;99061.59;;;18.72;100.00
49945;BME280;35838;49.134;9.212;2023-07-24T04:16:17;99064.22;;;18.72;100.00
49945;BME280;35838;49.134;9.212;2023-07-24T04:17:51;99065.81;;;18.58;100.00
49945;BME280;35838;49.134;9.212;2023-07-24T04:19:22;99067.88;;;18.69;100.00
49945;BME280;35838;49.134;9.212;2023-07-24T04:20:55;99055.50;;;18.71;100.00
49945;BME280;35838;49.134;9.212;2023-07-24T04:22:29;99046.38;;;18.78;100.00
49945;BME280;35838;49.134;9.212;2023-07-24T04:24:00;99045.47;;;18.79;100.00
49945;BME280;35838;49.134;9.212;2023-07-24T04:25:34;99055.31;;;18.92;100.00
49945;BME280;35838;49.134;9.212;2023-07-24T04:27:05;99048.69;;;19.02;100.00
49945;BME280;35838;49.134;9.212;2023-07-24T04:28:38;99028.41;;;19.04;100.00
49945;BME280;35838;49.134;9.212;2023-07-24T04:30:10;99025.78;;;19.04;100.00
49945;BME280;35838;49.134;9.212;2023-07-24T04:31:46;99019.59;;;19.05;100.00
49945;BME280;35838;49.134;9.212;2023-07-24T04:33:17;99016.78;;;19.08;100.00
49945;BME280;35838;49.134;9.212;2023-07-24T04:34:50;99022.06;;;19.08;100.00
49945;BME280;35838;49.134;9.212;2023-07-24T04:36:24;99019.34;;;19.10;100.00
49945;BME280;35838;49.134;9.212;2023-07-24T04:37:55;99021.69;;;18.99;100.00
49945;BME280;35838;49.134;9.212;2023-07-24T04:39:29;99018.91;;;19.02;100.00
49945;BME280;35838;49.134;9.212;2023-07-24T04:41:00;99020.00;;;18.98;100.00
49945;BME280;35838;49.134;9.212;2023-07-24T04:42:34;99018.97;;;19.00;100.00
49945;BME280;35838;49.134;9.212;2023-07-24T04:44:05;99010.16;;;19.01;100.00
49945;BME280;35838;49.134;9.212;2023-07-24T04:45:39;99009.88;;;19.07;100.00
49945;BME280;35838;49.134;9.212;2023-07-24T04:47:12;99001.19;;;19.05;100.00
49945;BME280;35838;49.134;9.212;2023-07-24T04:48:46;98992.53;;;19.03;100.00
49945;BME280;35838;49.134;9.212;2023-07-24T04:50:17;99001.34;;;19.02;100.00
49945;BME280;35838;49.134;9.212;2023-07-24T04:51:50;98992.88;;;18.97;100.00
49945;BME280;35838;49.134;9.212;2023-07-24T04:53:22;98986.59;;;19.00;100.00
49945;BME280;35838;49.134;9.212;2023-07-24T04:54:55;98983.13;;;18.99;100.00
49945;BME280;35838;49.134;9.212;2023-07-24T04:56:29;98983.63;;;19.06;100.00
49945;BME280;35838;49.134;9.212;2023-07-24T04:58:00;98986.25;;;19.06;100.00
49945;BME280;35838;49.134;9.212;2023-07-24T04:59:33;98986.59;;;19.00;100.00
49945;BME280;35838;49.134;9.212;2023-07-24T05:01:05;98995.56;;;18.95;100.00
49945;BME280;35838;49.134;9.212;2023-07-24T05:02:42;98984.81;;;19.00;100.00
49945;BME280;35838;49.134;9.212;2023-07-24T05:04:16;98976.16;;;18.98;100.00
49945;BME280;35838;49.134;9.212;2023-07-24T05:05:53;98971.34;;;19.06;100.00
49945;BME280;35838;49.134;9.212;2023-07-24T05:07:27;98961.13;;;19.00;100.00
49945;BME280;35838;49.134;9.212;2023-07-24T05:08:58;98964.91;;;19.12;100.00
49945;BME280;35838;49.134;9.212;2023-07-24T05:10:34;98962.97;;;19.16;100.00
49945;BME280;35838;49.134;9.212;2023-07-24T05:12:06;98967.09;;;19.20;100.00
49945;BME280;35838;49.134;9.212;2023-07-24T05:13:39;98966.03;;;19.24;100.00
49945;BME280;35838;49.134;9.212;2023-07-24T05:15:10;98969.41;;;19.26;100.00
49945;BME280;35838;49.134;9.212;2023-07-24T05:16:47;98963.81;;;19.32;100.00
49945;BME280;35838;49.134;9.212;2023-07-24T05:18:21;98966.94;;;19.23;100.00
49945;BME280;35838;49.134;9.212;2023-07-24T05:19:54;98965.41;;;19.19;100.00
49945;BME280;35838;49.134;9.212;2023-07-24T05:21:25;98964.56;;;19.18;100.00
49945;BME280;35838;49.134;9.212;2023-07-24T05:22:59;98958.91;;;19.26;100.00
49945;BME280;35838;49.134;9.212;2023-07-24T05:24:30;98967.97;;;19.20;100.00
49945;BME280;35838;49.134;9.212;2023-07-24T05:26:03;98975.75;;;19.22;100.00
49945;BME280;35838;49.134;9.212;2023-07-24T05:27:34;98968.28;;;19.14;100.00
49945;BME280;35838;49.134;9.212;2023-07-24T05:29:08;98969.47;;;19.08;100.00
49945;BME280;35838;49.134;9.212;2023-07-24T05:30:39;98976.16;;;18.98;100.00
49945;BME280;35838;49.134;9.212;2023-07-24T05:32:13;98984.50;;;19.06;100.00
49945;BME280;35838;49.134;9.212;2023-07-24T05:33:47;98982.53;;;19.10;100.00
49945;BME280;35838;49.134;9.212;2023-07-24T05:35:20;98983.38;;;19.10;100.00
49945;BME280;35838;49.134;9.212;2023-07-24T05:36:51;98992.03;;;19.13;100.00
49945;BME280;35838;49.134;9.212;2023-07-24T05:38:25;98997.66;;;19.22;100.00
49945;BME280;35838;49.134;9.212;2023-07-24T05:39:56;98996.22;;;19.17;100.00
49945;BME280;35838;49.134;9.212;2023-07-24T05:41:29;99004.84;;;19.19;100.00
49945;BME280;35838;49.134;9.212;2023-07-24T05:43:00;99003.34;;;19.15;100.00
49945;BME280;35838;49.134;9.212;2023-07-24T05:44:34;99012.16;;;19.14;100.00
49945;BME280;35838;49.134;9.212;2023-07-24T05:46:07;99010.53;;;19.27;100.00
49945;BME280;35838;49.134;9.212;2023-07-24T05:47:41;99012.00;;;19.33;100.00
49945;BME280;35838;49.134;9.212;2023-07-24T05:49:14;99013.78;;;19.32;100.00
49945;BME280;35838;49.134;9.212;2023-07-24T05:50:48;99001.84;;;19.42;100.00
49945;BME280;35838;49.134;9.212;2023-07-24T05:52:19;99005.66;;;19.37;100.00
49945;BME280;35838;49.134;9.212;2023-07-24T05:53:53;98997.50;;;19.41;100.00
49945;BME280;35838;49.134;9.212;2023-07-24T05:55:26;98996.63;;;19.41;100.00
49945;BME280;35838;49.134;9.212;2023-07-24T05:56:57;98988.50;;;19.46;100.00
49945;BME280;35838;49.134;9.212;2023-07-24T05:58:31;98990.88;;;19.50;100.00
49945;BME280;35838;49.134;9.212;2023-07-24T06:00:02;98991.72;;;19.51;100.00
49945;BME280;35838;49.134;9.212;2023-07-24T06:01:36;98994.94;;;19.56;100.00
49945;BME280;35838;49.134;9.212;2023-07-24T06:03:07;99009.47;;;19.47;100.00
49945;BME280;35838;49.134;9.212;2023-07-24T06:04:43;99012.59;;;19.54;100.00
49945;BME280;35838;49.134;9.212;2023-07-24T06:06:14;99002.94;;;19.54;100.00
49945;BME280;35838;49.134;9.212;2023-07-24T06:07:48;98995.03;;;19.54;100.00
49945;BME280;35838;49.134;9.212;2023-07-24T06:09:19;99005.88;;;19.48;100.00
49945;BME280;35838;49.134;9.212;2023-07-24T06:10:52;99016.22;;;19.35;100.00
49945;BME280;35838;49.134;9.212;2023-07-24T06:12:23;99026.00;;;19.33;100.00
49945;BME280;35838;49.134;9.212;2023-07-24T06:13:57;99016.19;;;19.37;100.00
49945;BME280;35838;49.134;9.212;2023-07-24T06:15:30;99017.69;;;19.41;100.00
49945;BME280;35838;49.134;9.212;2023-07-24T06:17:02;99005.31;;;19.43;100.00
49945;BME280;35838;49.134;9.212;2023-07-24T06:18:36;99014.38;;;19.37;100.00
49945;BME280;35838;49.134;9.212;2023-07-24T06:20:10;99016.41;;;19.48;100.00
49945;BME280;35838;49.134;9.212;2023-07-24T06:21:43;99007.00;;;19.60;100.00
49945;BME280;35838;49.134;9.212;2023-07-24T06:23:14;99007.59;;;19.65;100.00
49945;BME280;35838;49.134;9.212;2023-07-24T06:24:48;99002.84;;;19.72;100.00
49945;BME280;35838;49.134;9.212;2023-07-24T06:26:19;99011.00;;;19.67;100.00
49945;BME280;35838;49.134;9.212;2023-07-24T06:27:52;99014.66;;;19.65;100.00
49945;BME280;35838;49.134;9.212;2023-07-24T06:29:23;99016.84;;;19.72;100.00
49945;BME280;35838;49.134;9.212;2023-07-24T06:30:57;99024.41;;;19.79;100.00
49945;BME280;35838;49.134;9.212;2023-07-24T06:32:28;99026.28;;;19.77;100.00
49945;BME280;35838;49.134;9.212;2023-07-24T06:34:02;99013.00;;;19.78;100.00
49945;BME280;35838;49.134;9.212;2023-07-24T06:35:38;99004.63;;;19.87;100.00
49945;BME280;35838;49.134;9.212;2023-07-24T06:37:09;98995.91;;;19.87;100.00
49945;BME280;35838;49.134;9.212;2023-07-24T06:38:43;98998.16;;;19.93;100.00
49945;BME280;35838;49.134;9.212;2023-07-24T06:40:14;98983.88;;;19.97;100.00
49945;BME280;35838;49.134;9.212;2023-07-24T06:41:48;98978.69;;;20.12;100.00
49945;BME280;35838;49.134;9.212;2023-07-24T06:43:19;98976.03;;;20.12;100.00
49945;BME280;35838;49.134;9.212;2023-07-24T06:44:53;98977.91;;;20.10;100.00
49945;BME280;35838;49.134;9.212;2023-07-24T06:46:24;98972.09;;;20.19;100.00
49945;BME280;35838;49.134;9.212;2023-07-24T06:47:57;98972.66;;;20.24;100.00
49945;BME280;35838;49.134;9.212;2023-07-24T06:49:28;98963.56;;;20.30;100.00
49945;BME280;35838;49.134;9.212;2023-07-24T06:51:04;98968.00;;;20.29;100.00
49945;BME280;35838;49.134;9.212;2023-07-24T06:52:35;98964.59;;;20.27;100.00
49945;BME280;35838;49.134;9.212;2023-07-24T06:54:09;98963.44;;;20.17;100.00
49945;BME280;35838;49.134;9.212;2023-07-24T06:55:41;98954.22;;;20.24;100.00
49945;BME280;35838;49.134;9.212;2023-07-24T06:57:14;98960.84;;;20.31;100.00
49945;BME280;35838;49.134;9.212;2023-07-24T06:58:45;98958.00;;;20.34;100.00
49945;BME280;35838;49.134;9.212;2023-07-24T07:00:19;98957.09;;;20.35;100.00
49945;BME280;35838;49.134;9.212;2023-07-24T07:01:50;98958.78;;;20.37;100.00
49945;BME280;35838;49.134;9.212;2023-07-24T07:03:24;98957.56;;;20.42;100.00
49945;BME280;35838;49.134;9.212;2023-07-24T07:04:57;98961.03;;;20.43;100.00
49945;BME280;35838;49.134;9.212;2023-07-24T07:06:31;98961.03;;;20.43;100.00
49945;BME280;35838;49.134;9.212;2023-07-24T07:08:04;98947.53;;;20.49;100.00
49945;BME280;35838;49.134;9.212;2023-07-24T07:09:35;98949.38;;;20.47;100.00
49945;BME280;35838;49.134;9.212;2023-07-24T07:11:09;98940.34;;;20.51;100.00
49945;BME280;35838;49.134;9.212;2023-07-24T07:12:40;98927.75;;;20.56;100.00
49945;BME280;35838;49.134;9.212;2023-07-24T07:14:14;98936.22;;;20.61;100.00
49945;BME280;35838;49.134;9.212;2023-07-24T07:15:45;98954.38;;;20.66;100.00
49945;BME280;35838;49.134;9.212;2023-07-24T07:17:18;98949.69;;;20.71;100.00
49945;BME280;35838;49.134;9.212;2023-07-24T07:18:49;98955.81;;;20.72;100.00
49945;BME280;35838;49.134;9.212;2023-07-24T07:20:23;98962.94;;;20.70;100.00
49945;BME280;35838;49.134;9.212;2023-07-24T07:21:57;98965.88;;;20.65;100.00
49945;BME280;35838;49.134;9.212;2023-07-24T07:23:31;98969.38;;;20.65;100.00
49945;BME280;35838;49.134;9.212;2023-07-24T07:25:02;98965.03;;;20.64;100.00
49945;BME280;35838;49.134;9.212;2023-07-24T07:26:35;98978.00;;;20.67;100.00
49945;BME280;35838;49.134;9.212;2023-07-24T07:28:06;98981.59;;;20.66;100.00
49945;BME280;35838;49.134;9.212;2023-07-24T07:29:40;98982.91;;;20.59;100.00
49945;BME280;35838;49.134;9.212;2023-07-24T07:31:14;98977.28;;;20.65;100.00
49945;BME280;35838;49.134;9.212;2023-07-24T07:32:48;98984.97;;;20.69;100.00
49945;BME280;35838;49.134;9.212;2023-07-24T07:34:21;98982.34;;;20.69;100.00
49945;BME280;35838;49.134;9.212;2023-07-24T07:35:52;98993.50;;;20.74;100.00
49945;BME280;35838;49.134;9.212;2023-07-24T07:37:29;99004.03;;;20.74;100.00
49945;BME280;35838;49.134;9.212;2023-07-24T07:39:02;99002.19;;;20.76;100.00
49945;BME280;35838;49.134;9.212;2023-07-24T07:40:33;98989.94;;;20.75;100.00
49945;BME280;35838;49.134;9.212;2023-07-24T07:42:07;98988.75;;;20.64;100.00
49945;BME280;35838;49.134;9.212;2023-07-24T07:43:40;98986.66;;;20.55;100.00
49945;BME280;35838;49.134;9.212;2023-07-24T07:45:11;98986.19;;;20.48;100.00
49945;BME280;35838;49.134;9.212;2023-07-24T07:46:45;98984.03;;;20.55;100.00
49945;BME280;35838;49.134;9.212;2023-07-24T07:48:16;98974.59;;;20.51;100.00
49945;BME280;35838;49.134;9.212;2023-07-24T07:49:50;98980.53;;;20.40;100.00
49945;BME280;35838;49.134;9.212;2023-07-24T07:51:21;98983.25;;;20.39;100.00
49945;BME280;35838;49.134;9.212;2023-07-24T07:52:58;98977.63;;;20.45;100.00
49945;BME280;35838;49.134;9.212;2023-07-24T07:54:29;98987.97;;;20.48;100.00
49945;BME280;35838;49.134;9.212;2023-07-24T07:56:03;98986.56;;;20.42;100.00
49945;BME280;35838;49.134;9.212;2023-07-24T07:57:35;98979.84;;;20.37;100.00
49945;BME280;35838;49.134;9.212;2023-07-24T07:59:09;98991.56;;;20.47;100.00
49945;BME280;35838;49.134;9.212;2023-07-24T08:00:40;98987.97;;;20.48;100.00
49945;BME280;35838;49.134;9.212;2023-07-24T08:02:13;98992.03;;;20.54;100.00
49945;BME280;35838;49.134;9.212;2023-07-24T08:03:44;98991.84;;;20.57;100.00
49945;BME280;35838;49.134;9.212;2023-07-24T08:05:18;98993.81;;;20.53;100.00